createdAt,value
2022-11-26T05:15:29.826Z,101323.06
2022-11-26T05:17:56.298Z,101341.34
2022-11-26T05:20:23.060Z,101343.31
2022-11-26T05:22:52.535Z,101346.78
2022-11-26T05:25:18.959Z,101339.72
2022-11-26T05:27:45.460Z,101349.34
2022-11-26T05:30:12.450Z,101349.25
2022-11-26T05:32:38.921Z,101340.34
2022-11-26T05:35:05.762Z,101347.50
2022-11-26T05:37:32.640Z,101355.34
2022-11-26T05:39:59.097Z,101355.28
2022-11-26T05:42:25.557Z,101358.81
2022-11-26T05:44:52.043Z,101359.69
2022-11-26T05:47:18.529Z,101359.72
2022-11-26T05:49:44.970Z,101362.53
2022-11-26T05:52:11.464Z,101366.91
2022-11-26T05:54:42.030Z,101380.94
2022-11-26T05:57:08.642Z,101372.28
2022-11-26T05:59:35.199Z,101376.69
2022-11-26T06:02:01.744Z,101375.03
2022-11-26T06:04:29.080Z,101382.06
2022-11-26T06:06:55.621Z,101380.31
2022-11-26T06:09:22.141Z,101373.22
2022-11-26T06:11:50.324Z,101382.88
2022-11-26T06:14:17.492Z,101385.53
2022-11-26T06:16:44.251Z,101385.53
2022-11-26T06:19:11.975Z,101389.91
2022-11-26T06:21:39.518Z,101398.66
2022-11-26T06:24:36.436Z,101395.19
2022-11-26T06:27:05.239Z,101397.00
2022-11-26T06:29:31.748Z,101402.25
2022-11-26T06:32:01.526Z,101404.84
2022-11-26T06:34:27.980Z,101407.47
2022-11-26T06:36:54.415Z,101411.88
2022-11-26T06:39:20.862Z,101420.59
2022-11-26T06:41:47.439Z,101434.59
2022-11-26T06:44:14.136Z,101436.38
2022-11-26T06:46:40.618Z,101430.22
2022-11-26T06:49:07.371Z,101438.06
2022-11-26T06:51:33.862Z,101441.53
2022-11-26T06:54:00.322Z,101442.44
2022-11-26T06:56:26.780Z,101447.69
2022-11-26T06:58:55.212Z,101452.13
2022-11-26T07:01:30.228Z,101453.81
2022-11-26T07:03:56.725Z,101451.19
2022-11-26T07:06:29.073Z,101466.97
2022-11-26T07:08:57.467Z,101466.94
2022-11-26T07:11:25.504Z,101465.22
2022-11-26T07:13:52.386Z,101470.47
2022-11-26T07:16:18.956Z,101469.56
2022-11-26T07:18:50.112Z,101465.22
2022-11-26T07:21:17.112Z,101468.72
2022-11-26T07:23:43.741Z,101466.97
2022-11-26T07:26:12.411Z,101472.19
2022-11-26T07:28:39.572Z,101481.88
2022-11-26T07:31:16.395Z,101482.72
2022-11-26T07:33:44.167Z,101487.09
2022-11-26T07:36:26.011Z,101489.72
2022-11-26T07:38:57.274Z,101487.09
2022-11-26T07:41:25.071Z,101487.97
2022-11-26T07:43:54.924Z,101496.69
2022-11-26T07:46:24.869Z,101499.34
2022-11-26T07:48:51.761Z,101506.38
2022-11-26T07:52:33.144Z,101501.09
2022-11-26T07:54:31.172Z,101498.47
2022-11-26T07:57:02.553Z,101489.69
2022-11-26T07:59:29.708Z,101500.19
2022-11-26T08:02:47.016Z,101497.59
2022-11-26T08:05:13.557Z,101509.81
2022-11-26T08:07:40.100Z,101516.78
2022-11-26T08:10:07.227Z,101515.88
2022-11-26T08:12:33.722Z,101518.53
2022-11-26T08:15:00.179Z,101516.72
2022-11-26T08:17:26.720Z,101521.94
2022-11-26T08:19:55.246Z,101515.88
2022-11-26T08:22:23.773Z,101511.44
2022-11-26T08:24:50.281Z,101510.56
2022-11-26T08:27:17.253Z,101519.28
2022-11-26T08:29:43.689Z,101513.16
2022-11-26T08:32:10.137Z,101523.63
2022-11-26T08:34:36.878Z,101523.59
2022-11-26T08:37:30.181Z,101517.44
2022-11-26T08:39:56.598Z,101515.72
2022-11-26T08:42:23.075Z,101512.09
2022-11-26T08:44:51.734Z,101523.47
2022-11-26T08:47:49.085Z,101521.56
2022-11-26T08:50:16.331Z,101525.09
2022-11-26T08:52:43.597Z,101536.44
2022-11-26T08:55:10.211Z,101531.66
2022-11-26T08:57:36.765Z,101539.56
2022-11-26T09:00:05.304Z,101535.25
2022-11-26T09:02:36.961Z,101535.97
2022-11-26T09:05:19.461Z,101542.16
2022-11-26T09:07:49.208Z,101549.22
2022-11-26T09:10:24.097Z,101552.63
2022-11-26T09:12:51.014Z,101561.06
2022-11-26T09:15:20.860Z,101567.47
2022-11-26T09:17:52.358Z,101569.25
2022-11-26T09:20:21.409Z,101562.66
2022-11-26T09:22:48.006Z,101564.44
2022-11-26T09:25:14.916Z,101560.53
2022-11-26T09:27:41.518Z,101559.50
2022-11-26T09:30:08.619Z,101565.22
2022-11-26T09:32:35.320Z,101572.97
2022-11-26T09:35:04.845Z,101570.75
2022-11-26T09:37:32.205Z,101566.22
2022-11-26T09:39:59.065Z,101576.41
2022-11-26T09:42:31.873Z,101572.66
2022-11-26T09:45:34.742Z,101562.53
2022-11-26T09:48:03.125Z,101567.47
2022-11-26T09:50:35.544Z,101567.44
2022-11-26T09:53:27.612Z,101573.13
2022-11-26T09:55:59.093Z,101566.13
2022-11-26T09:58:48.985Z,101559.56
2022-11-26T10:01:21.072Z,101556.63
2022-11-26T10:03:54.409Z,101555.34
2022-11-26T10:07:20.447Z,101552.09
2022-11-26T10:09:53.919Z,101552.69
2022-11-26T10:13:03.530Z,101558.09
2022-11-26T10:15:35.735Z,101557.66
2022-11-26T10:18:20.876Z,101561.53
2022-11-26T10:24:32.049Z,101567.63
2022-11-26T10:27:19.279Z,101557.69
2022-11-26T10:29:54.254Z,101558.13
2022-11-26T10:32:27.686Z,101552.25
2022-11-26T10:34:58.553Z,101563.75
2022-11-26T10:37:27.310Z,101567.69
2022-11-26T10:40:08.843Z,101563.69
2022-11-26T10:42:46.871Z,101559.53
2022-11-26T10:45:28.020Z,101563.75
2022-11-26T10:48:31.200Z,101572.06
2022-11-26T10:50:59.764Z,101557.63
2022-11-26T10:53:28.651Z,101552.69
2022-11-26T10:55:59.130Z,101559.72
2022-11-26T10:58:30.252Z,101558.22
2022-11-26T11:01:01.903Z,101560.53
2022-11-26T11:06:37.621Z,101553.66
2022-11-26T11:09:25.647Z,101551.63
2022-11-26T11:12:16.478Z,101552.34
2022-11-26T11:14:47.470Z,101549.09
2022-11-26T11:17:35.617Z,101551.13
2022-11-26T11:20:14.885Z,101547.59
2022-11-26T11:22:44.273Z,101545.25
2022-11-26T11:25:32.458Z,101547.31
2022-11-26T11:28:12.003Z,101549.31
2022-11-26T11:30:40.410Z,101545.78
2022-11-26T11:33:23.997Z,101539.78
2022-11-26T11:36:15.088Z,101537.47
2022-11-26T11:38:52.477Z,101541.09
2022-11-26T11:41:27.020Z,101549.59
2022-11-26T11:44:00.041Z,101537.88
2022-11-26T11:46:49.281Z,101534.84
2022-11-26T11:49:40.517Z,101542.19
2022-11-26T11:52:54.816Z,101535.78
2022-11-26T11:55:24.266Z,101532.06
2022-11-26T11:58:35.451Z,101535.25
2022-11-26T12:01:38.374Z,101526.00
2022-11-26T12:04:29.095Z,101531.28
2022-11-26T12:07:33.879Z,101530.31
2022-11-26T12:10:00.317Z,101544.22
2022-11-26T12:12:33.587Z,101530.72
2022-11-26T12:15:10.308Z,101529.34
2022-11-26T12:17:46.881Z,101533.47
2022-11-26T12:20:31.447Z,101532.72
2022-11-26T12:23:38.414Z,101529.44
2022-11-26T12:26:27.666Z,101537.31
2022-11-26T12:29:00.653Z,101527.38
2022-11-26T12:31:41.952Z,101521.22
2022-11-26T12:34:32.180Z,101527.81
2022-11-26T12:37:05.688Z,101539.16
2022-11-26T12:39:56.175Z,101534.91
2022-11-26T12:42:33.617Z,101545.34
2022-11-26T12:45:25.470Z,101543.53
2022-11-26T12:47:59.866Z,101544.78
2022-11-26T12:50:38.174Z,101546.69
2022-11-26T12:53:24.183Z,101551.25
2022-11-26T12:56:02.684Z,101556.81
2022-11-26T12:58:42.494Z,101564.91
2022-11-26T13:01:11.170Z,101576.34
2022-11-26T13:03:37.701Z,101575.84
2022-11-26T13:06:31.758Z,101577.50
2022-11-26T13:09:07.956Z,101571.28
2022-11-26T13:11:57.245Z,101564.91
2022-11-26T13:14:31.246Z,101571.81
2022-11-26T13:17:12.222Z,101578.69
2022-11-26T13:19:43.791Z,101575.22
2022-11-26T13:22:33.911Z,101562.53
2022-11-26T13:25:26.729Z,101564.81
2022-11-26T13:28:10.287Z,101567.81
2022-11-26T13:31:07.871Z,101564.75
2022-11-26T13:34:26.331Z,101560.91
2022-11-26T13:37:57.730Z,101557.72
2022-11-26T13:40:30.294Z,101561.25
2022-11-26T13:42:56.778Z,101569.53
2022-11-26T13:45:54.640Z,101563.66
2022-11-26T13:48:58.290Z,101553.94
2022-11-26T13:51:49.015Z,101561.22
2022-11-26T13:54:18.562Z,101561.66
2022-11-26T13:56:46.944Z,101568.38
2022-11-26T13:59:28.329Z,101565.41
2022-11-26T14:01:56.125Z,101556.50
2022-11-26T14:04:22.603Z,101560.44
2022-11-26T14:07:04.377Z,101553.03
2022-11-26T14:09:43.176Z,101557.72
2022-11-26T14:12:10.850Z,101564.81
2022-11-26T14:14:39.419Z,101560.53
2022-11-26T14:17:30.100Z,101567.38
2022-11-26T14:20:01.116Z,101561.88
2022-11-26T14:22:29.624Z,101581.66
2022-11-26T14:25:02.411Z,101573.78
2022-11-26T14:27:34.808Z,101575.66
2022-11-26T14:30:07.450Z,101571.78
2022-11-26T14:33:14.554Z,101568.38
2022-11-26T14:35:51.639Z,101566.78
2022-11-26T14:38:27.628Z,101574.19
2022-11-26T14:40:59.284Z,101568.03
2022-11-26T14:43:26.089Z,101575.38
2022-11-26T14:46:19.646Z,101564.50
2022-11-26T14:48:48.747Z,101567.78
2022-11-26T14:51:23.358Z,101568.63
2022-11-26T14:53:50.801Z,101574.00
2022-11-26T14:56:19.673Z,101568.09
2022-11-26T14:58:51.554Z,101566.47
2022-11-26T15:01:23.743Z,101554.56
2022-11-26T15:04:05.387Z,101553.44
2022-11-26T15:06:37.928Z,101547.78
2022-11-26T15:09:16.833Z,101548.34
2022-11-26T15:12:12.455Z,101540.19
2022-11-26T15:14:53.865Z,101542.31
2022-11-26T15:17:24.088Z,101542.59
2022-11-26T15:19:52.594Z,101541.19
2022-11-26T15:22:32.907Z,101542.31
2022-11-26T15:24:59.531Z,101538.25
2022-11-26T15:27:36.228Z,101533.91
2022-11-26T15:30:05.328Z,101523.22
2022-11-26T15:32:33.880Z,101530.75
2022-11-26T15:35:02.843Z,101539.41
2022-11-26T15:37:29.449Z,101527.47
2022-11-26T15:40:23.485Z,101521.66
2022-11-26T15:42:53.790Z,101526.66
2022-11-26T15:45:22.960Z,101520.88
2022-11-26T15:47:52.391Z,101517.47
2022-11-26T15:50:25.662Z,101526.94
2022-11-26T15:52:56.531Z,101534.69
2022-11-26T15:55:28.460Z,101549.28
2022-11-26T15:57:56.200Z,101554.09
2022-11-26T16:00:27.971Z,101555.84
2022-11-26T16:02:54.435Z,101555.84
2022-11-26T16:05:35.885Z,101551.31
2022-11-26T16:08:32.425Z,101563.06
2022-11-26T16:11:08.667Z,101549.56
2022-11-26T16:13:36.215Z,101545.88
2022-11-26T16:16:15.562Z,101540.69
2022-11-26T16:18:48.474Z,101539.06
2022-11-26T16:21:16.650Z,101550.94
2022-11-26T16:23:43.629Z,101542.38
2022-11-26T16:26:17.766Z,101553.50
2022-11-26T16:28:45.225Z,101550.94
2022-11-26T16:31:12.775Z,101555.19
2022-11-26T16:33:39.331Z,101556.16
2022-11-26T16:36:16.623Z,101552.09
2022-11-26T16:38:45.287Z,101549.22
2022-11-26T16:41:14.711Z,101550.50
2022-11-26T16:43:41.275Z,101557.22
2022-11-26T16:46:14.987Z,101557.50
2022-11-26T16:48:42.826Z,101553.94
2022-11-26T16:51:09.386Z,101549.00
2022-11-26T16:53:35.872Z,101546.09
2022-11-26T16:56:02.688Z,101546.66
2022-11-26T16:58:32.360Z,101551.41
2022-11-26T17:00:59.556Z,101549.31
2022-11-26T17:03:29.839Z,101558.47
2022-11-26T17:06:11.050Z,101558.56
2022-11-26T17:08:37.602Z,101553.03
2022-11-26T17:11:04.180Z,101560.59
2022-11-26T17:13:31.744Z,101553.84
2022-11-26T17:15:58.600Z,101548.72
2022-11-26T17:18:26.069Z,101540.34
2022-11-26T17:20:54.038Z,101538.53
2022-11-26T17:23:20.753Z,101531.38
2022-11-26T17:25:51.882Z,101519.56
2022-11-26T17:28:18.720Z,101525.44
2022-11-26T17:30:45.282Z,101531.44
2022-11-26T17:33:12.298Z,101532.94
2022-11-26T17:35:39.497Z,101539.38
2022-11-26T17:38:19.833Z,101528.81
2022-11-26T17:40:47.035Z,101527.38
2022-11-26T17:43:14.153Z,101523.81
2022-11-26T17:45:41.348Z,101530.25
2022-11-26T17:48:12.019Z,101533.03
2022-11-26T17:50:38.674Z,101535.25
2022-11-26T17:53:05.191Z,101541.91
2022-11-26T17:55:31.717Z,101539.63
2022-11-26T17:57:58.342Z,101551.41
2022-11-26T18:00:30.197Z,101544.28
2022-11-26T18:02:57.523Z,101552.69
2022-11-26T18:05:24.551Z,101555.75
2022-11-26T18:07:55.144Z,101555.19
2022-11-26T18:10:23.740Z,101549.34
2022-11-26T18:12:54.293Z,101551.53
2022-11-26T18:15:22.909Z,101554.81
2022-11-26T18:17:51.866Z,101548.31
2022-11-26T18:20:20.202Z,101554.38
2022-11-26T18:22:52.711Z,101549.63
2022-11-26T18:25:19.260Z,101545.47
2022-11-26T18:27:45.964Z,101549.78
2022-11-26T18:30:12.998Z,101558.97
2022-11-26T18:32:39.865Z,101555.81
2022-11-26T18:35:07.224Z,101544.53
2022-11-26T18:37:35.052Z,101545.63
2022-11-26T18:40:04.075Z,101552.84
2022-11-26T18:42:38.491Z,101542.50
2022-11-26T18:45:07.684Z,101539.38
2022-11-26T18:47:34.170Z,101537.16
2022-11-26T18:50:00.640Z,101538.44
2022-11-26T18:52:27.108Z,101546.16
2022-11-26T18:54:54.898Z,101540.81
2022-11-26T18:57:21.431Z,101537.75
2022-11-26T18:59:48.884Z,101536.41
2022-11-26T19:02:15.356Z,101523.16
2022-11-26T19:04:41.927Z,101528.19
2022-11-26T19:07:08.991Z,101526.28
2022-11-26T19:09:35.517Z,101534.63
2022-11-26T19:12:02.083Z,101525.03
2022-11-26T19:14:28.518Z,101515.09
2022-11-26T19:16:55.047Z,101514.00
2022-11-26T19:19:22.590Z,101497.88
2022-11-26T19:22:00.506Z,101501.63
2022-11-26T19:24:31.267Z,101506.81
2022-11-26T19:26:57.786Z,101506.91
2022-11-26T19:29:24.373Z,101505.53
2022-11-26T19:31:50.889Z,101499.09
2022-11-26T19:34:18.414Z,101499.13
2022-11-26T19:36:49.813Z,101493.78
2022-11-26T19:39:16.811Z,101492.22
2022-11-26T19:41:43.372Z,101490.41
2022-11-26T19:44:09.832Z,101490.59
2022-11-26T19:46:40.545Z,101493.41
2022-11-26T19:49:08.060Z,101498.28
2022-11-26T19:51:34.547Z,101504.03
2022-11-26T19:54:00.998Z,101508.22
2022-11-26T19:56:30.213Z,101512.75
2022-11-26T19:58:58.516Z,101512.50
2022-11-26T20:01:27.203Z,101509.47
2022-11-26T20:03:54.085Z,101507.84
2022-11-26T20:06:23.692Z,101510.00
2022-11-26T20:08:50.326Z,101511.47
2022-11-26T20:11:21.243Z,101511.72
2022-11-26T20:13:49.042Z,101511.09
2022-11-26T20:16:30.273Z,101510.00
2022-11-26T20:18:59.529Z,101514.91
2022-11-26T20:21:28.110Z,101510.44
2022-11-26T20:23:57.971Z,101508.19
2022-11-26T20:26:34.123Z,101511.38
2022-11-26T20:29:12.475Z,101499.47
2022-11-26T20:31:42.406Z,101508.84
2022-11-26T20:34:08.878Z,101506.00
2022-11-26T20:36:35.368Z,101504.50
2022-11-26T20:39:02.626Z,101495.78
2022-11-26T20:41:29.991Z,101499.75
2022-11-26T20:43:59.439Z,101500.94
2022-11-26T20:46:28.341Z,101501.59
2022-11-26T20:48:55.366Z,101501.00
2022-11-26T20:51:22.577Z,101508.91
2022-11-26T20:53:50.501Z,101507.00
2022-11-26T20:56:19.036Z,101511.03
2022-11-26T20:58:45.579Z,101516.22
2022-11-26T21:01:17.180Z,101514.59
2022-11-26T21:03:44.475Z,101520.41
2022-11-26T21:06:13.741Z,101519.19
2022-11-26T21:08:41.455Z,101507.94
2022-11-26T21:11:08.258Z,101520.31
2022-11-26T21:13:36.491Z,101513.78
2022-11-26T21:16:05.060Z,101510.47
2022-11-26T21:18:32.507Z,101511.31
2022-11-26T21:20:59.953Z,101523.25
2022-11-26T21:23:26.996Z,101519.66
2022-11-26T21:25:53.487Z,101523.31
2022-11-26T21:28:20.438Z,101518.50
2022-11-26T21:30:47.287Z,101519.81
2022-11-26T21:33:14.875Z,101531.25
2022-11-26T21:35:41.322Z,101525.97
2022-11-26T21:38:07.838Z,101520.94
2022-11-26T21:40:34.347Z,101511.59
2022-11-26T21:43:00.800Z,101519.13
2022-11-26T21:45:30.204Z,101518.88
2022-11-26T21:47:56.689Z,101526.69
2022-11-26T21:50:23.171Z,101523.91
2022-11-26T21:52:49.646Z,101513.59
2022-11-26T21:55:16.397Z,101512.19
2022-11-26T21:57:42.843Z,101506.63
2022-11-26T22:00:09.927Z,101500.69
2022-11-26T22:02:36.467Z,101496.91
2022-11-26T22:05:03.196Z,101493.91
2022-11-26T22:07:30.670Z,101487.19
2022-11-26T22:09:57.322Z,101487.19
2022-11-26T22:12:23.741Z,101489.97
2022-11-26T22:14:50.165Z,101497.59
2022-11-26T22:17:16.645Z,101500.19
2022-11-26T22:19:43.392Z,101495.09
2022-11-26T22:22:09.915Z,101498.94
2022-11-26T22:24:36.363Z,101497.63
2022-11-26T22:27:02.858Z,101499.22
2022-11-26T22:29:29.392Z,101503.47
2022-11-26T22:31:55.906Z,101505.97
2022-11-26T22:34:24.440Z,101498.84
2022-11-26T22:36:51.101Z,101494.59
2022-11-26T22:39:18.683Z,101494.34
2022-11-26T22:41:46.603Z,101486.00
2022-11-26T22:44:15.494Z,101491.34
2022-11-26T22:46:42.132Z,101480.84
2022-11-26T22:49:12.829Z,101482.38
2022-11-26T22:51:39.559Z,101473.72
2022-11-26T22:54:09.684Z,101477.53
2022-11-26T22:56:37.827Z,101472.84
2022-11-26T22:59:06.379Z,101462.53
